sensor_id;sensor_type;location;lat;lon;timestamp;temperature;humidity
29939;DHT22;16799;50.844;5.304;2023-05-07T00:01:18;16.20;99.90
29939;DHT22;16799;50.844;5.304;2023-05-07T00:03:44;16.30;99.90
29939;DHT22;16799;50.844;5.304;2023-05-07T00:06:10;16.30;99.90
29939;DHT22;16799;50.844;5.304;2023-05-07T00:08:38;16.40;99.90
29939;DHT22;16799;50.844;5.304;2023-05-07T00:11:04;16.40;99.90
29939;DHT22;16799;50.844;5.304;2023-05-07T00:13:30;16.40;99.90
29939;DHT22;16799;50.844;5.304;2023-05-07T00:16:01;16.50;99.90
29939;DHT22;16799;50.844;5.304;2023-05-07T00:18:27;16.30;99.90
29939;DHT22;16799;50.844;5.304;2023-05-07T00:20:52;16.40;99.90
29939;DHT22;16799;50.844;5.304;2023-05-07T00:23:18;16.40;99.90
29939;DHT22;16799;50.844;5.304;2023-05-07T00:25:44;16.50;99.90
29939;DHT22;16799;50.844;5.304;2023-05-07T00:28:09;16.40;99.90
29939;DHT22;16799;50.844;5.304;2023-05-07T00:30:35;16.40;99.90
29939;DHT22;16799;50.844;5.304;2023-05-07T00:33:01;16.40;99.90
29939;DHT22;16799;50.844;5.304;2023-05-07T00:35:29;16.40;99.90
29939;DHT22;16799;50.844;5.304;2023-05-07T00:37:55;16.40;99.90
29939;DHT22;16799;50.844;5.304;2023-05-07T00:40:21;16.50;99.90
29939;DHT22;16799;50.844;5.304;2023-05-07T00:42:46;16.40;99.90
29939;DHT22;16799;50.844;5.304;2023-05-07T00:45:13;16.60;99.90
29939;DHT22;16799;50.844;5.304;2023-05-07T00:47:40;16.60;99.90
29939;DHT22;16799;50.844;5.304;2023-05-07T00:50:06;16.50;99.90
29939;DHT22;16799;50.844;5.304;2023-05-07T00:52:32;16.60;99.90
29939;DHT22;16799;50.844;5.304;2023-05-07T00:55:01;16.50;99.90
29939;DHT22;16799;50.844;5.304;2023-05-07T00:57:29;16.40;99.90
29939;DHT22;16799;50.844;5.304;2023-05-07T00:59:57;16.30;99.90
29939;DHT22;16799;50.844;5.304;2023-05-07T01:02:23;16.30;99.90
29939;DHT22;16799;50.844;5.304;2023-05-07T01:04:49;16.30;99.90
29939;DHT22;16799;50.844;5.304;2023-05-07T01:07:15;16.30;99.90
29939;DHT22;16799;50.844;5.304;2023-05-07T01:09:41;16.30;99.90
29939;DHT22;16799;50.844;5.304;2023-05-07T01:12:07;16.30;99.90
29939;DHT22;16799;50.844;5.304;2023-05-07T01:14:33;16.20;99.90
29939;DHT22;16799;50.844;5.304;2023-05-07T01:16:59;16.30;99.90
29939;DHT22;16799;50.844;5.304;2023-05-07T01:19:25;16.30;99.90
29939;DHT22;16799;50.844;5.304;2023-05-07T01:21:56;16.30;99.90
29939;DHT22;16799;50.844;5.304;2023-05-07T01:24:26;16.20;99.90
29939;DHT22;16799;50.844;5.304;2023-05-07T01:26:51;16.20;99.90
29939;DHT22;16799;50.844;5.304;2023-05-07T01:29:17;16.20;99.90
29939;DHT22;16799;50.844;5.304;2023-05-07T01:31:43;16.20;99.90
29939;DHT22;16799;50.844;5.304;2023-05-07T01:34:11;16.20;99.90
29939;DHT22;16799;50.844;5.304;2023-05-07T01:36:38;16.30;99.90
29939;DHT22;16799;50.844;5.304;2023-05-07T01:39:06;16.00;99.90
29939;DHT22;16799;50.844;5.304;2023-05-07T01:41:32;15.90;99.90
29939;DHT22;16799;50.844;5.304;2023-05-07T01:43:58;15.70;99.90
29939;DHT22;16799;50.844;5.304;2023-05-07T01:46:25;15.70;99.90
29939;DHT22;16799;50.844;5.304;2023-05-07T01:48:51;15.60;99.90
29939;DHT22;16799;50.844;5.304;2023-05-07T01:51:17;15.70;99.90
29939;DHT22;16799;50.844;5.304;2023-05-07T01:53:42;15.60;99.90
29939;DHT22;16799;50.844;5.304;2023-05-07T01:56:09;15.70;99.90
29939;DHT22;16799;50.844;5.304;2023-05-07T01:58:35;15.60;99.90
29939;DHT22;16799;50.844;5.304;2023-05-07T02:01:00;15.70;99.90
29939;DHT22;16799;50.844;5.304;2023-05-07T02:03:26;15.70;99.90
29939;DHT22;16799;50.844;5.304;2023-05-07T02:05:52;15.60;99.90
29939;DHT22;16799;50.844;5.304;2023-05-07T02:08:17;15.60;99.90
29939;DHT22;16799;50.844;5.304;2023-05-07T02:10:43;15.70;99.90
29939;DHT22;16799;50.844;5.304;2023-05-07T02:13:08;15.60;99.90
29939;DHT22;16799;50.844;5.304;2023-05-07T02:15:34;15.70;99.90
29939;DHT22;16799;50.844;5.304;2023-05-07T02:18:02;15.70;99.90
29939;DHT22;16799;50.844;5.304;2023-05-07T02:20:28;15.60;99.90
29939;DHT22;16799;50.844;5.304;2023-05-07T02:22:54;15.70;99.90
29939;DHT22;16799;50.844;5.304;2023-05-07T02:25:19;15.70;99.90
29939;DHT22;16799;50.844;5.304;2023-05-07T02:27:45;15.80;99.90
29939;DHT22;16799;50.844;5.304;2023-05-07T02:30:11;15.80;99.90
29939;DHT22;16799;50.844;5.304;2023-05-07T02:32:36;15.80;99.90
29939;DHT22;16799;50.844;5.304;2023-05-07T02:35:02;15.80;99.90
29939;DHT22;16799;50.844;5.304;2023-05-07T02:37:28;15.90;99.90
29939;DHT22;16799;50.844;5.304;2023-05-07T02:39:53;15.90;99.90
29939;DHT22;16799;50.844;5.304;2023-05-07T02:42:19;15.90;99.90
29939;DHT22;16799;50.844;5.304;2023-05-07T02:44:45;15.90;99.90
29939;DHT22;16799;50.844;5.304;2023-05-07T02:47:10;16.00;99.90
29939;DHT22;16799;50.844;5.304;2023-05-07T02:49:38;15.80;99.90
29939;DHT22;16799;50.844;5.304;2023-05-07T02:52:04;15.80;99.90
29939;DHT22;16799;50.844;5.304;2023-05-07T02:54:29;15.80;99.90
29939;DHT22;16799;50.844;5.304;2023-05-07T02:56:55;15.80;99.90
29939;DHT22;16799;50.844;5.304;2023-05-07T02:59:21;15.80;99.90
29939;DHT22;16799;50.844;5.304;2023-05-07T03:01:47;15.80;99.90
29939;DHT22;16799;50.844;5.304;2023-05-07T03:04:13;15.80;99.90
29939;DHT22;16799;50.844;5.304;2023-05-07T03:06:39;15.80;99.90
29939;DHT22;16799;50.844;5.304;2023-05-07T03:09:05;15.80;99.90
29939;DHT22;16799;50.844;5.304;2023-05-07T03:11:30;15.80;99.90
29939;DHT22;16799;50.844;5.304;2023-05-07T03:13:56;15.80;99.90
29939;DHT22;16799;50.844;5.304;2023-05-07T03:16:22;15.80;99.90
29939;DHT22;16799;50.844;5.304;2023-05-07T03:18:47;15.70;99.90
29939;DHT22;16799;50.844;5.304;2023-05-07T03:21:13;15.70;99.90
29939;DHT22;16799;50.844;5.304;2023-05-07T03:23:38;15.70;99.90
29939;DHT22;16799;50.844;5.304;2023-05-07T03:26:04;15.60;99.90
29939;DHT22;16799;50.844;5.304;2023-05-07T03:28:30;15.60;99.90
29939;DHT22;16799;50.844;5.304;2023-05-07T03:30:56;15.80;99.90
29939;DHT22;16799;50.844;5.304;2023-05-07T03:33:21;15.80;99.90
29939;DHT22;16799;50.844;5.304;2023-05-07T03:35:47;15.80;99.90
29939;DHT22;16799;50.844;5.304;2023-05-07T03:38:13;15.90;99.90
29939;DHT22;16799;50.844;5.304;2023-05-07T03:40:38;15.90;99.90
29939;DHT22;16799;50.844;5.304;2023-05-07T03:43:04;15.80;99.90
29939;DHT22;16799;50.844;5.304;2023-05-07T03:45:29;15.90;99.90
29939;DHT22;16799;50.844;5.304;2023-05-07T03:47:55;15.90;99.90
29939;DHT22;16799;50.844;5.304;2023-05-07T03:50:21;15.90;99.90
29939;DHT22;16799;50.844;5.304;2023-05-07T03:52:46;15.90;99.90
29939;DHT22;16799;50.844;5.304;2023-05-07T03:55:12;15.80;99.90
29939;DHT22;16799;50.844;5.304;2023-05-07T03:57:38;15.80;99.90
29939;DHT22;16799;50.844;5.304;2023-05-07T04:00:04;15.80;99.90
29939;DHT22;16799;50.844;5.304;2023-05-07T04:02:30;15.90;99.90
29939;DHT22;16799;50.844;5.304;2023-05-07T04:04:56;16.00;99.90
29939;DHT22;16799;50.844;5.304;2023-05-07T04:07:22;16.00;99.90
29939;DHT22;16799;50.844;5.304;2023-05-07T04:09:48;15.90;99.90
29939;DHT22;16799;50.844;5.304;2023-05-07T04:12:15;15.90;99.90
29939;DHT22;16799;50.844;5.304;2023-05-07T04:14:41;15.90;99.90
29939;DHT22;16799;50.844;5.304;2023-05-07T04:17:06;15.80;99.90
29939;DHT22;16799;50.844;5.304;2023-05-07T04:19:33;15.90;99.90
29939;DHT22;16799;50.844;5.304;2023-05-07T04:21:59;15.90;99.90
29939;DHT22;16799;50.844;5.304;2023-05-07T04:24:24;15.80;99.90
29939;DHT22;16799;50.844;5.304;2023-05-07T04:26:50;15.80;99.90
29939;DHT22;16799;50.844;5.304;2023-05-07T04:29:16;15.80;99.90
29939;DHT22;16799;50.844;5.304;2023-05-07T04:31:42;15.80;99.90
29939;DHT22;16799;50.844;5.304;2023-05-07T04:34:10;15.80;99.90
29939;DHT22;16799;50.844;5.304;2023-05-07T04:36:37;15.90;99.90
29939;DHT22;16799;50.844;5.304;2023-05-07T04:39:03;15.90;99.90
29939;DHT22;16799;50.844;5.304;2023-05-07T04:41:29;16.10;99.90
29939;DHT22;16799;50.844;5.304;2023-05-07T04:43:54;16.10;99.90
29939;DHT22;16799;50.844;5.304;2023-05-07T04:46:20;16.10;99.90
29939;DHT22;16799;50.844;5.304;2023-05-07T04:48:46;16.10;99.90
29939;DHT22;16799;50.844;5.304;2023-05-07T04:51:12;16.20;99.90
29939;DHT22;16799;50.844;5.304;2023-05-07T04:53:37;16.20;99.90
29939;DHT22;16799;50.844;5.304;2023-05-07T04:56:03;16.20;99.90
29939;DHT22;16799;50.844;5.304;2023-05-07T04:58:29;16.20;99.90
29939;DHT22;16799;50.844;5.304;2023-05-07T05:00:57;16.30;99.90
29939;DHT22;16799;50.844;5.304;2023-05-07T05:03:23;16.30;99.90
29939;DHT22;16799;50.844;5.304;2023-05-07T05:05:50;16.30;99.90
29939;DHT22;16799;50.844;5.304;2023-05-07T05:08:16;16.30;99.90
29939;DHT22;16799;50.844;5.304;2023-05-07T05:10:42;16.40;99.90
29939;DHT22;16799;50.844;5.304;2023-05-07T05:13:09;16.40;99.90
29939;DHT22;16799;50.844;5.304;2023-05-07T05:15:35;16.30;99.90
29939;DHT22;16799;50.844;5.304;2023-05-07T05:18:01;16.40;99.90
29939;DHT22;16799;50.844;5.304;2023-05-07T05:20:26;16.50;99.90
29939;DHT22;16799;50.844;5.304;2023-05-07T05:22:52;16.50;99.90
29939;DHT22;16799;50.844;5.304;2023-05-07T05:25:18;16.40;99.90
29939;DHT22;16799;50.844;5.304;2023-05-07T05:27:43;16.50;99.90
29939;DHT22;16799;50.844;5.304;2023-05-07T05:30:09;16.50;99.90
29939;DHT22;16799;50.844;5.304;2023-05-07T05:32:35;16.60;99.90
29939;DHT22;16799;50.844;5.304;2023-05-07T05:35:01;16.60;99.90
29939;DHT22;16799;50.844;5.304;2023-05-07T05:37:27;16.70;99.90
29939;DHT22;16799;50.844;5.304;2023-05-07T05:39:52;16.80;99.90
29939;DHT22;16799;50.844;5.304;2023-05-07T05:42:20;17.00;99.90
29939;DHT22;16799;50.844;5.304;2023-05-07T05:44:45;17.20;99.90
29939;DHT22;16799;50.844;5.304;2023-05-07T05:47:11;17.20;99.90
29939;DHT22;16799;50.844;5.304;2023-05-07T05:49:37;17.20;99.90
29939;DHT22;16799;50.844;5.304;2023-05-07T05:52:02;17.30;99.90
29939;DHT22;16799;50.844;5.304;2023-05-07T05:54:28;17.30;99.90
29939;DHT22;16799;50.844;5.304;2023-05-07T05:56:54;17.40;99.90
29939;DHT22;16799;50.844;5.304;2023-05-07T05:59:19;17.40;99.90
29939;DHT22;16799;50.844;5.304;2023-05-07T06:01:45;17.50;99.90
29939;DHT22;16799;50.844;5.304;2023-05-07T06:04:11;17.60;99.90
29939;DHT22;16799;50.844;5.304;2023-05-07T06:06:37;17.60;99.90
29939;DHT22;16799;50.844;5.304;2023-05-07T06:09:02;17.70;99.90
29939;DHT22;16799;50.844;5.304;2023-05-07T06:11:28;17.90;99.90
29939;DHT22;16799;50.844;5.304;2023-05-07T06:13:54;18.10;99.90
29939;DHT22;16799;50.844;5.304;2023-05-07T06:16:19;18.30;99.90
29939;DHT22;16799;50.844;5.304;2023-05-07T06:18:45;18.50;99.90
29939;DHT22;16799;50.844;5.304;2023-05-07T06:21:13;18.80;99.90
29939;DHT22;16799;50.844;5.304;2023-05-07T06:23:38;19.10;99.90
29939;DHT22;16799;50.844;5.304;2023-05-07T06:26:06;19.30;99.90
29939;DHT22;16799;50.844;5.304;2023-05-07T06:28:32;19.70;99.90
29939;DHT22;16799;50.844;5.304;2023-05-07T06:31:14;19.90;99.90
29939;DHT22;16799;50.844;5.304;2023-05-07T06:33:40;20.20;99.90
29939;DHT22;16799;50.844;5.304;2023-05-07T06:36:06;20.30;99.90
29939;DHT22;16799;50.844;5.304;2023-05-07T06:38:32;20.40;99.90
29939;DHT22;16799;50.844;5.304;2023-05-07T06:40:57;20.30;99.90
29939;DHT22;16799;50.844;5.304;2023-05-07T06:43:23;20.60;99.90
29939;DHT22;16799;50.844;5.304;2023-05-07T06:45:49;20.60;99.90
29939;DHT22;16799;50.844;5.304;2023-05-07T06:48:14;20.70;99.90
29939;DHT22;16799;50.844;5.304;2023-05-07T06:50:41;20.70;99.90
29939;DHT22;16799;50.844;5.304;2023-05-07T06:53:07;20.60;99.90
29939;DHT22;16799;50.844;5.304;2023-05-07T06:55:33;20.40;99.90
29939;DHT22;16799;50.844;5.304;2023-05-07T06:57:58;20.40;99.90
29939;DHT22;16799;50.844;5.304;2023-05-07T07:00:27;20.50;99.90
29939;DHT22;16799;50.844;5.304;2023-05-07T07:02:53;20.70;99.90
29939;DHT22;16799;50.844;5.304;2023-05-07T07:05:19;20.90;99.90
29939;DHT22;16799;50.844;5.304;2023-05-07T07:07:45;21.10;99.90
29939;DHT22;16799;50.844;5.304;2023-05-07T07:10:20;21.40;99.90
29939;DHT22;16799;50.844;5.304;2023-05-07T07:12:46;21.40;99.90
29939;DHT22;16799;50.844;5.304;2023-05-07T07:15:13;21.40;99.90
29939;DHT22;16799;50.844;5.304;2023-05-07T07:17:38;21.50;99.90
29939;DHT22;16799;50.844;5.304;2023-05-07T07:20:05;21.50;99.90
29939;DHT22;16799;50.844;5.304;2023-05-07T07:22:31;21.50;99.90
29939;DHT22;16799;50.844;5.304;2023-05-07T07:24:56;21.30;99.90
29939;DHT22;16799;50.844;5.304;2023-05-07T07:27:22;21.20;99.90
29939;DHT22;16799;50.844;5.304;2023-05-07T07:29:48;21.10;99.90
29939;DHT22;16799;50.844;5.304;2023-05-07T07:32:14;21.20;99.90
29939;DHT22;16799;50.844;5.304;2023-05-07T07:34:39;21.20;99.90
29939;DHT22;16799;50.844;5.304;2023-05-07T07:37:05;21.40;99.90
29939;DHT22;16799;50.844;5.304;2023-05-07T07:39:34;21.70;99.90
29939;DHT22;16799;50.844;5.304;2023-05-07T07:42:00;21.90;99.90
29939;DHT22;16799;50.844;5.304;2023-05-07T07:44:27;21.90;99.90
29939;DHT22;16799;50.844;5.304;2023-05-07T07:46:53;22.00;99.90
29939;DHT22;16799;50.844;5.304;2023-05-07T07:49:19;22.00;99.90
29939;DHT22;16799;50.844;5.304;2023-05-07T07:51:45;21.40;99.90
29939;DHT22;16799;50.844;5.304;2023-05-07T07:54:10;21.20;99.90
29939;DHT22;16799;50.844;5.304;2023-05-07T07:56:36;21.60;99.90
29939;DHT22;16799;50.844;5.304;2023-05-07T07:59:02;22.10;99.90
29939;DHT22;16799;50.844;5.304;2023-05-07T08:01:29;22.30;99.90
29939;DHT22;16799;50.844;5.304;2023-05-07T08:03:55;22.60;99.90
29939;DHT22;16799;50.844;5.304;2023-05-07T08:06:23;22.00;99.90
29939;DHT22;16799;50.844;5.304;2023-05-07T08:08:48;21.30;99.90
29939;DHT22;16799;50.844;5.304;2023-05-07T08:11:14;20.60;99.90
29939;DHT22;16799;50.844;5.304;2023-05-07T08:13:40;20.80;99.90
29939;DHT22;16799;50.844;5.304;2023-05-07T08:16:05;21.30;99.90
29939;DHT22;16799;50.844;5.304;2023-05-07T08:18:31;21.90;99.90
29939;DHT22;16799;50.844;5.304;2023-05-07T08:20:57;21.90;99.90
29939;DHT22;16799;50.844;5.304;2023-05-07T08:23:22;21.50;99.90
29939;DHT22;16799;50.844;5.304;2023-05-07T08:25:49;21.30;99.90
29939;DHT22;16799;50.844;5.304;2023-05-07T08:28:15;20.40;99.90
29939;DHT22;16799;50.844;5.304;2023-05-07T08:30:41;20.00;99.90
29939;DHT22;16799;50.844;5.304;2023-05-07T08:33:08;20.10;99.90
29939;DHT22;16799;50.844;5.304;2023-05-07T08:35:34;20.00;99.90
29939;DHT22;16799;50.844;5.304;2023-05-07T08:37:59;20.10;99.90
29939;DHT22;16799;50.844;5.304;2023-05-07T08:40:26;20.20;99.90
29939;DHT22;16799;50.844;5.304;2023-05-07T08:42:53;20.30;99.90
29939;DHT22;16799;50.844;5.304;2023-05-07T08:45:20;20.20;99.90
29939;DHT22;16799;50.844;5.304;2023-05-07T08:47:55;20.10;99.90
29939;DHT22;16799;50.844;5.304;2023-05-07T08:50:22;20.10;99.90
29939;DHT22;16799;50.844;5.304;2023-05-07T08:52:48;20.00;99.90
29939;DHT22;16799;50.844;5.304;2023-05-07T08:55:14;19.90;99.90
29939;DHT22;16799;50.844;5.304;2023-05-07T08:57:40;19.90;99.90
29939;DHT22;16799;50.844;5.304;2023-05-07T09:00:06;20.10;99.90
29939;DHT22;16799;50.844;5.304;2023-05-07T09:02:33;20.20;99.90
29939;DHT22;16799;50.844;5.304;2023-05-07T09:05:00;20.10;99.90
29939;DHT22;16799;50.844;5.304;2023-05-07T09:07:25;20.00;99.90
29939;DHT22;16799;50.844;5.304;2023-05-07T09:09:52;19.90;99.90
29939;DHT22;16799;50.844;5.304;2023-05-07T09:12:18;19.80;99.90
29939;DHT22;16799;50.844;5.304;2023-05-07T09:14:45;19.80;99.90
29939;DHT22;16799;50.844;5.304;2023-05-07T09:17:11;19.90;99.90
29939;DHT22;16799;50.844;5.304;2023-05-07T09:19:36;19.90;99.90
29939;DHT22;16799;50.844;5.304;2023-05-07T09:22:04;19.70;99.90
29939;DHT22;16799;50.844;5.304;2023-05-07T09:24:30;19.50;99.90
29939;DHT22;16799;50.844;5.304;2023-05-07T09:27:00;19.60;99.90
29939;DHT22;16799;50.844;5.304;2023-05-07T09:29:27;19.60;99.90
29939;DHT22;16799;50.844;5.304;2023-05-07T09:32:09;19.60;99.90
29939;DHT22;16799;50.844;5.304;2023-05-07T09:34:35;19.60;99.90
29939;DHT22;16799;50.844;5.304;2023-05-07T09:37:02;19.50;99.90
29939;DHT22;16799;50.844;5.304;2023-05-07T09:39:48;19.70;99.90
29939;DHT22;16799;50.844;5.304;2023-05-07T09:42:15;19.60;99.90
29939;DHT22;16799;50.844;5.304;2023-05-07T09:44:41;19.60;99.90
29939;DHT22;16799;50.844;5.304;2023-05-07T09:47:08;19.60;99.90
29939;DHT22;16799;50.844;5.304;2023-05-07T09:49:37;19.60;99.90
29939;DHT22;16799;50.844;5.304;2023-05-07T09:52:04;19.50;99.90
29939;DHT22;16799;50.844;5.304;2023-05-07T09:54:36;19.40;99.90
29939;DHT22;16799;50.844;5.304;2023-05-07T09:57:04;19.60;99.90
29939;DHT22;16799;50.844;5.304;2023-05-07T09:59:32;19.50;99.90
29939;DHT22;16799;50.844;5.304;2023-05-07T10:01:58;19.40;99.90
29939;DHT22;16799;50.844;5.304;2023-05-07T10:04:25;19.20;99.90
29939;DHT22;16799;50.844;5.304;2023-05-07T10:06:51;19.00;99.90
29939;DHT22;16799;50.844;5.304;2023-05-07T10:09:19;19.00;99.90
29939;DHT22;16799;50.844;5.304;2023-05-07T10:11:45;19.00;99.90
29939;DHT22;16799;50.844;5.304;2023-05-07T10:14:11;19.00;99.90
29939;DHT22;16799;50.844;5.304;2023-05-07T10:16:37;19.10;99.90
29939;DHT22;16799;50.844;5.304;2023-05-07T10:19:08;19.30;99.90
29939;DHT22;16799;50.844;5.304;2023-05-07T10:21:39;19.40;99.90
29939;DHT22;16799;50.844;5.304;2023-05-07T10:24:19;19.20;99.90
29939;DHT22;16799;50.844;5.304;2023-05-07T10:26:48;19.00;99.90
29939;DHT22;16799;50.844;5.304;2023-05-07T10:29:21;19.00;99.90
29939;DHT22;16799;50.844;5.304;2023-05-07T10:32:19;19.10;99.90
29939;DHT22;16799;50.844;5.304;2023-05-07T10:34:41;19.00;99.90
29939;DHT22;16799;50.844;5.304;2023-05-07T10:37:09;18.80;99.90
29939;DHT22;16799;50.844;5.304;2023-05-07T10:39:35;18.70;99.90
29939;DHT22;16799;50.844;5.304;2023-05-07T10:42:09;18.60;99.90
29939;DHT22;16799;50.844;5.304;2023-05-07T10:44:35;18.60;99.90
29939;DHT22;16799;50.844;5.304;2023-05-07T10:47:13;18.40;99.90
29939;DHT22;16799;50.844;5.304;2023-05-07T10:52:18;18.20;99.90
29939;DHT22;16799;50.844;5.304;2023-05-07T10:54:44;18.10;99.90
29939;DHT22;16799;50.844;5.304;2023-05-07T10:57:45;18.10;99.90
29939;DHT22;16799;50.844;5.304;2023-05-07T11:05:28;18.00;99.90
29939;DHT22;16799;50.844;5.304;2023-05-07T11:08:01;18.00;99.90
29939;DHT22;16799;50.844;5.304;2023-05-07T11:13:15;17.90;99.90
29939;DHT22;16799;50.844;5.304;2023-05-07T11:15:48;18.00;99.90
29939;DHT22;16799;50.844;5.304;2023-05-07T11:18:17;18.00;99.90
29939;DHT22;16799;50.844;5.304;2023-05-07T11:20:51;17.80;99.90
29939;DHT22;16799;50.844;5.304;2023-05-07T11:26:09;17.60;99.90
29939;DHT22;16799;50.844;5.304;2023-05-07T11:28:40;17.70;99.90
29939;DHT22;16799;50.844;5.304;2023-05-07T11:31:06;17.60;99.90
29939;DHT22;16799;50.844;5.304;2023-05-07T11:33:32;17.50;99.90
29939;DHT22;16799;50.844;5.304;2023-05-07T11:35:58;17.60;99.90
29939;DHT22;16799;50.844;5.304;2023-05-07T11:38:25;17.60;99.90
29939;DHT22;16799;50.844;5.304;2023-05-07T11:40:52;17.30;99.90
29939;DHT22;16799;50.844;5.304;2023-05-07T11:43:18;17.30;99.90
29939;DHT22;16799;50.844;5.304;2023-05-07T11:45:45;17.40;99.90
29939;DHT22;16799;50.844;5.304;2023-05-07T11:48:13;17.50;99.90
29939;DHT22;16799;50.844;5.304;2023-05-07T11:51:02;17.60;99.90
29939;DHT22;16799;50.844;5.304;2023-05-07T11:53:35;17.60;99.90
29939;DHT22;16799;50.844;5.304;2023-05-07T11:56:09;17.50;99.90
29939;DHT22;16799;50.844;5.304;2023-05-07T11:58:35;17.60;99.90
29939;DHT22;16799;50.844;5.304;2023-05-07T12:01:01;17.60;99.90
29939;DHT22;16799;50.844;5.304;2023-05-07T12:03:27;17.50;99.90
29939;DHT22;16799;50.844;5.304;2023-05-07T12:05:53;17.40;99.90
29939;DHT22;16799;50.844;5.304;2023-05-07T12:08:20;17.50;99.90
29939;DHT22;16799;50.844;5.304;2023-05-07T12:10:48;17.60;99.90
29939;DHT22;16799;50.844;5.304;2023-05-07T12:13:19;17.60;99.90
29939;DHT22;16799;50.844;5.304;2023-05-07T12:15:44;17.80;99.90
29939;DHT22;16799;50.844;5.304;2023-05-07T12:18:13;17.90;99.90
29939;DHT22;16799;50.844;5.304;2023-05-07T12:20:40;17.70;99.90
29939;DHT22;16799;50.844;5.304;2023-05-07T12:23:06;17.60;99.90
29939;DHT22;16799;50.844;5.304;2023-05-07T12:25:35;17.60;99.90
29939;DHT22;16799;50.844;5.304;2023-05-07T12:28:02;17.60;99.90
29939;DHT22;16799;50.844;5.304;2023-05-07T12:30:36;17.80;99.90
29939;DHT22;16799;50.844;5.304;2023-05-07T12:33:02;17.80;99.90
29939;DHT22;16799;50.844;5.304;2023-05-07T12:35:32;17.90;99.90
29939;DHT22;16799;50.844;5.304;2023-05-07T12:38:01;18.00;99.90
29939;DHT22;16799;50.844;5.304;2023-05-07T12:40:49;18.00;99.90
29939;DHT22;16799;50.844;5.304;2023-05-07T12:43:29;18.00;99.90
29939;DHT22;16799;50.844;5.304;2023-05-07T12:45:56;18.10;99.90
29939;DHT22;16799;50.844;5.304;2023-05-07T12:48:23;18.10;99.90
29939;DHT22;16799;50.844;5.304;2023-05-07T12:50:50;18.10;99.90
29939;DHT22;16799;50.844;5.304;2023-05-07T12:53:15;18.30;99.90
29939;DHT22;16799;50.844;5.304;2023-05-07T12:55:49;18.20;99.90
29939;DHT22;16799;50.844;5.304;2023-05-07T12:58:34;18.30;99.90
29939;DHT22;16799;50.844;5.304;2023-05-07T13:01:07;18.40;99.90
29939;DHT22;16799;50.844;5.304;2023-05-07T13:03:34;18.60;99.90
29939;DHT22;16799;50.844;5.304;2023-05-07T13:06:05;18.70;99.90
29939;DHT22;16799;50.844;5.304;2023-05-07T13:08:34;18.60;99.90
29939;DHT22;16799;50.844;5.304;2023-05-07T13:11:01;18.70;99.90
29939;DHT22;16799;50.844;5.304;2023-05-07T13:13:34;18.60;99.90
29939;DHT22;16799;50.844;5.304;2023-05-07T13:16:01;18.70;99.90
29939;DHT22;16799;50.844;5.304;2023-05-07T13:18:29;18.80;99.90
29939;DHT22;16799;50.844;5.304;2023-05-07T13:20:54;18.70;99.90
29939;DHT22;16799;50.844;5.304;2023-05-07T13:23:20;18.90;99.90
29939;DHT22;16799;50.844;5.304;2023-05-07T13:25:46;19.00;99.90
29939;DHT22;16799;50.844;5.304;2023-05-07T13:28:12;19.30;99.90
29939;DHT22;16799;50.844;5.304;2023-05-07T13:30:38;19.60;99.90
29939;DHT22;16799;50.844;5.304;2023-05-07T13:33:03;19.70;99.90
29939;DHT22;16799;50.844;5.304;2023-05-07T13:35:29;19.80;99.90
29939;DHT22;16799;50.844;5.304;2023-05-07T13:37:55;20.00;99.90
29939;DHT22;16799;50.844;5.304;2023-05-07T13:40:24;19.90;99.90
29939;DHT22;16799;50.844;5.304;2023-05-07T13:42:50;19.50;99.90
29939;DHT22;16799;50.844;5.304;2023-05-07T13:45:17;19.70;99.90
29939;DHT22;16799;50.844;5.304;2023-05-07T13:47:43;20.10;99.90
29939;DHT22;16799;50.844;5.304;2023-05-07T13:50:09;20.60;99.90
29939;DHT22;16799;50.844;5.304;2023-05-07T13:52:37;20.70;99.90
29939;DHT22;16799;50.844;5.304;2023-05-07T13:55:02;19.90;99.90
29939;DHT22;16799;50.844;5.304;2023-05-07T13:57:28;19.50;99.90
29939;DHT22;16799;50.844;5.304;2023-05-07T13:59:54;19.60;99.90
29939;DHT22;16799;50.844;5.304;2023-05-07T14:02:20;19.50;99.90
29939;DHT22;16799;50.844;5.304;2023-05-07T14:04:45;19.70;99.90
29939;DHT22;16799;50.844;5.304;2023-05-07T14:07:11;19.50;99.90
29939;DHT22;16799;50.844;5.304;2023-05-07T14:09:37;19.40;99.90
29939;DHT22;16799;50.844;5.304;2023-05-07T14:12:02;19.70;99.90
29939;DHT22;16799;50.844;5.304;2023-05-07T14:14:28;19.70;99.90
29939;DHT22;16799;50.844;5.304;2023-05-07T14:16:54;19.80;99.90
29939;DHT22;16799;50.844;5.304;2023-05-07T14:19:19;19.80;99.90
29939;DHT22;16799;50.844;5.304;2023-05-07T14:21:45;19.90;99.90
29939;DHT22;16799;50.844;5.304;2023-05-07T14:24:10;19.90;99.90
29939;DHT22;16799;50.844;5.304;2023-05-07T14:26:36;19.90;99.90
29939;DHT22;16799;50.844;5.304;2023-05-07T14:29:03;19.90;99.90
29939;DHT22;16799;50.844;5.304;2023-05-07T14:31:28;20.10;99.90
29939;DHT22;16799;50.844;5.304;2023-05-07T14:33:54;20.30;99.90
29939;DHT22;16799;50.844;5.304;2023-05-07T14:36:20;20.50;99.90
29939;DHT22;16799;50.844;5.304;2023-05-07T14:38:48;20.80;99.90
29939;DHT22;16799;50.844;5.304;2023-05-07T14:41:13;21.20;99.90
29939;DHT22;16799;50.844;5.304;2023-05-07T14:43:40;21.40;99.90
29939;DHT22;16799;50.844;5.304;2023-05-07T14:46:05;21.40;99.90
29939;DHT22;16799;50.844;5.304;2023-05-07T14:48:31;21.00;99.90
29939;DHT22;16799;50.844;5.304;2023-05-07T14:50:57;20.90;99.90
29939;DHT22;16799;50.844;5.304;2023-05-07T14:53:23;20.70;99.90
29939;DHT22;16799;50.844;5.304;2023-05-07T14:55:49;20.80;99.90
29939;DHT22;16799;50.844;5.304;2023-05-07T14:58:14;20.80;99.90
29939;DHT22;16799;50.844;5.304;2023-05-07T15:00:40;20.70;99.90
29939;DHT22;16799;50.844;5.304;2023-05-07T15:03:08;20.30;99.90
29939;DHT22;16799;50.844;5.304;2023-05-07T15:05:34;20.50;99.90
29939;DHT22;16799;50.844;5.304;2023-05-07T15:08:00;21.00;99.90
29939;DHT22;16799;50.844;5.304;2023-05-07T15:10:26;20.80;99.90
29939;DHT22;16799;50.844;5.304;2023-05-07T15:12:51;20.70;99.90
29939;DHT22;16799;50.844;5.304;2023-05-07T15:15:17;20.50;99.90
29939;DHT22;16799;50.844;5.304;2023-05-07T15:17:43;20.60;99.90
29939;DHT22;16799;50.844;5.304;2023-05-07T15:20:08;20.40;99.90
29939;DHT22;16799;50.844;5.304;2023-05-07T15:22:35;20.20;99.90
29939;DHT22;16799;50.844;5.304;2023-05-07T15:25:02;19.90;99.90
29939;DHT22;16799;50.844;5.304;2023-05-07T15:27:29;19.90;99.90
29939;DHT22;16799;50.844;5.304;2023-05-07T15:29:56;20.60;99.90
29939;DHT22;16799;50.844;5.304;2023-05-07T15:32:21;20.70;99.90
29939;DHT22;16799;50.844;5.304;2023-05-07T15:34:47;21.30;99.90
29939;DHT22;16799;50.844;5.304;2023-05-07T15:37:13;21.00;99.90
29939;DHT22;16799;50.844;5.304;2023-05-07T15:39:38;21.00;99.90
29939;DHT22;16799;50.844;5.304;2023-05-07T15:42:04;21.20;99.90